Time;durP1;ratioP1;P1;durP2;ratioP2;P2;SDS_P1;SDS_P2;PMS_P1;PMS_P2;Temp;Humidity;BMP_temperature;BMP_pressure;BME280_temperature;BME280_humidity;BME280_pressure;Samples;Min_cycle;Max_cycle;Signal;HPM_P1;HPM_P2
2022/04/01 00:00:40;;;;;;;9.47;4.37;;;5.70;45.90;;;;;;5091565;28;20781;-46
2022/04/01 00:03:08;;;;;;;7.37;4.77;;;5.70;46.30;;;;;;5091560;28;20483;-46
2022/04/01 00:05:35;;;;;;;7.27;3.97;;;5.60;46.50;;;;;;5091877;28;20548;-46
2022/04/01 00:08:03;;;;;;;5.00;4.30;;;5.60;46.80;;;;;;5073384;28;20456;-45
2022/04/01 00:10:30;;;;;;;7.07;4.75;;;5.50;47.00;;;;;;5090987;28;20431;-45
2022/04/01 00:12:57;;;;;;;5.73;3.70;;;5.50;47.20;;;;;;5091329;28;20518;-46
2022/04/01 00:15:23;;;;;;;6.60;4.53;;;5.30;47.10;;;;;;5091431;28;20451;-46
2022/04/01 00:17:50;;;;;;;8.70;3.80;;;5.40;47.40;;;;;;5091593;28;20429;-45
2022/04/01 00:20:18;;;;;;;6.53;4.17;;;5.40;47.50;;;;;;5091075;28;20210;-44
2022/04/01 00:22:45;;;;;;;8.10;4.77;;;5.30;47.70;;;;;;5090967;28;20480;-46
2022/04/01 00:25:14;;;;;;;5.05;4.28;;;5.20;47.90;;;;;;5091106;28;20436;-46
2022/04/01 00:27:41;;;;;;;5.95;3.95;;;5.20;47.80;;;;;;5073093;28;20288;-45
2022/04/01 00:30:08;;;;;;;5.28;4.10;;;5.20;47.90;;;;;;5072513;28;20203;-45
2022/04/01 00:32:36;;;;;;;4.87;3.40;;;5.20;48.00;;;;;;5091055;28;20278;-45
2022/04/01 00:35:03;;;;;;;6.50;4.00;;;5.10;48.10;;;;;;5072658;28;20535;-45
2022/04/01 00:37:29;;;;;;;8.02;3.80;;;5.10;48.30;;;;;;5090945;28;20432;-45
2022/04/01 00:39:56;;;;;;;8.57;4.70;;;5.10;48.30;;;;;;5090602;28;20214;-46
2022/04/01 00:42:25;;;;;;;6.60;3.92;;;5.10;48.50;;;;;;5090962;28;20214;-46
2022/04/01 00:44:52;;;;;;;9.20;3.87;;;4.90;48.30;;;;;;5072744;28;20199;-46
2022/04/01 00:47:19;;;;;;;10.02;3.80;;;5.00;48.30;;;;;;5090807;28;20436;-45
2022/04/01 00:49:47;;;;;;;5.95;3.10;;;5.00;48.30;;;;;;5090625;28;20195;-46
2022/04/01 00:52:16;;;;;;;6.63;4.25;;;5.00;48.40;;;;;;5072518;28;20698;-47
2022/04/01 00:54:43;;;;;;;5.97;3.70;;;5.00;48.40;;;;;;5090567;28;20206;-47
2022/04/01 00:57:13;;;;;;;4.53;3.75;;;5.00;48.40;;;;;;5072541;28;20224;-47
2022/04/01 00:59:42;;;;;;;6.27;3.77;;;5.00;48.40;;;;;;5090615;28;20788;-46
2022/04/01 01:02:09;;;;;;;8.50;3.50;;;5.00;48.50;;;;;;5090729;28;20459;-47
2022/04/01 01:04:37;;;;;;;9.07;3.60;;;5.00;48.50;;;;;;5072434;28;20236;-46
2022/04/01 01:07:04;;;;;;;8.55;4.60;;;4.90;48.50;;;;;;5090719;28;20263;-46
2022/04/01 01:09:31;;;;;;;5.63;3.67;;;4.90;48.50;;;;;;5072221;28;20202;-44
2022/04/01 01:11:58;;;;;;;5.80;3.80;;;4.90;48.70;;;;;;5072336;28;20223;-46
2022/04/01 01:14:26;;;;;;;5.90;3.75;;;4.90;48.70;;;;;;5090570;28;20535;-45
2022/04/01 01:16:54;;;;;;;6.65;3.95;;;4.90;48.70;;;;;;5090540;28;20212;-46
2022/04/01 01:19:21;;;;;;;5.50;4.10;;;4.90;48.80;;;;;;5072131;28;20662;-45
2022/04/01 01:21:51;;;;;;;7.70;3.50;;;4.90;48.70;;;;;;5072267;28;20238;-45
2022/04/01 01:24:27;;;;;;;5.95;3.55;;;4.90;48.80;;;;;;5072344;28;20312;-46
2022/04/01 01:26:55;;;;;;;5.43;3.60;;;4.90;48.80;;;;;;5072469;28;20210;-45
2022/04/01 01:29:26;;;;;;;9.73;4.50;;;4.90;48.90;;;;;;5073249;28;20249;-45
2022/04/01 01:31:54;;;;;;;4.05;3.55;;;4.80;49.10;;;;;;5090777;28;20542;-46
2022/04/01 01:34:21;;;;;;;6.30;4.03;;;4.80;49.10;;;;;;5072868;28;20203;-45
2022/04/01 01:36:50;;;;;;;8.57;4.25;;;4.70;49.20;;;;;;5090984;28;20627;-44
2022/04/01 01:39:16;;;;;;;5.30;3.65;;;4.70;49.20;;;;;;5073508;28;20281;-44
2022/04/01 01:41:45;;;;;;;6.85;4.50;;;4.70;49.30;;;;;;5091587;28;20226;-46
2022/04/01 01:44:13;;;;;;;5.10;3.22;;;4.70;49.30;;;;;;5073241;28;20223;-45
2022/04/01 01:46:40;;;;;;;5.97;3.55;;;4.70;49.30;;;;;;5072301;28;20206;-46
2022/04/01 01:49:08;;;;;;;5.78;3.80;;;4.60;49.30;;;;;;5071881;28;20194;-44
2022/04/01 01:57:05;;;;;;;6.95;4.38;;;4.50;49.40;;;;;;5090575;28;20339;-46
2022/04/01 01:59:33;;;;;;;8.52;4.13;;;4.50;49.60;;;;;;5071982;28;20202;-46
2022/04/01 02:02:02;;;;;;;11.43;3.80;;;4.50;49.60;;;;;;5071810;28;20222;-45
2022/04/01 02:04:29;;;;;;;5.40;3.35;;;4.40;49.50;;;;;;5090128;28;20572;-45
2022/04/01 02:06:55;;;;;;;5.25;3.95;;;4.40;49.70;;;;;;5072976;28;20301;-46
2022/04/01 02:09:22;;;;;;;5.88;4.15;;;4.40;50.00;;;;;;5075354;28;20194;-46
2022/04/01 02:11:49;;;;;;;7.60;4.38;;;4.30;50.30;;;;;;5075638;28;20230;-46
2022/04/01 02:14:17;;;;;;;6.30;4.43;;;4.20;50.50;;;;;;5072192;28;20217;-46
2022/04/01 02:16:44;;;;;;;10.60;4.45;;;4.20;50.70;;;;;;5055855;28;20205;-45
2022/04/01 02:19:11;;;;;;;9.85;4.85;;;4.20;50.90;;;;;;5055868;28;20199;-46
2022/04/01 02:21:39;;;;;;;6.03;4.28;;;4.10;51.00;;;;;;5055327;28;20280;-47
2022/04/01 02:24:07;;;;;;;7.20;4.60;;;4.10;51.10;;;;;;5055284;28;20310;-46
2022/04/01 02:26:34;;;;;;;6.72;3.83;;;4.10;51.20;;;;;;5055423;28;20210;-45
2022/04/01 02:29:03;;;;;;;8.82;4.68;;;4.00;51.20;;;;;;5071373;28;20199;-46
2022/04/01 02:31:36;;;;;;;11.10;4.05;;;4.10;51.30;;;;;;5055064;28;20222;-46
2022/04/01 02:34:42;;;;;;;9.32;4.35;;;4.10;51.40;;;;;;5073042;28;20191;-46
2022/04/01 02:37:09;;;;;;;5.97;4.32;;;4.00;51.40;;;;;;5074343;28;20195;-45
2022/04/01 02:39:36;;;;;;;12.13;4.53;;;4.00;51.50;;;;;;5056558;28;20663;-45
2022/04/01 02:42:03;;;;;;;5.25;3.88;;;4.00;51.50;;;;;;5056864;28;20302;-45
2022/04/01 02:44:29;;;;;;;8.60;4.68;;;4.00;51.60;;;;;;5078074;28;20215;-45
2022/04/01 02:46:57;;;;;;;4.93;3.95;;;3.90;51.80;;;;;;5059044;28;20196;-45
2022/04/01 02:49:24;;;;;;;6.90;4.28;;;3.80;51.90;;;;;;5058898;28;20207;-46
2022/04/01 02:51:57;;;;;;;6.95;3.83;;;3.80;51.90;;;;;;5059335;28;20223;-45
2022/04/01 02:54:25;;;;;;;6.97;4.43;;;3.80;52.10;;;;;;5069277;28;20277;-44
2022/04/01 02:56:54;;;;;;;9.60;4.32;;;3.80;52.10;;;;;;5056521;28;20195;-44
2022/04/01 02:59:21;;;;;;;6.80;4.10;;;3.80;52.20;;;;;;5056512;28;20315;-45
2022/04/01 03:01:47;;;;;;;8.18;3.53;;;3.60;52.10;;;;;;5057384;28;20307;-46
2022/04/01 03:04:16;;;;;;;8.82;4.57;;;3.70;52.30;;;;;;5056494;28;20246;-46
2022/04/01 03:06:55;;;;;;;7.97;4.32;;;3.60;52.50;;;;;;5054768;28;20596;-46
2022/04/01 03:09:22;;;;;;;5.78;4.40;;;3.60;52.70;;;;;;5054206;28;20286;-44
2022/04/01 03:11:58;;;;;;;6.88;4.80;;;3.60;52.60;;;;;;5054276;28;20229;-46
2022/04/01 03:14:42;;;;;;;8.60;5.00;;;3.60;52.60;;;;;;5065543;28;20225;-45
2022/04/01 03:17:28;;;;;;;7.22;3.85;;;3.40;52.60;;;;;;5092618;28;20217;-46
2022/04/01 03:19:56;;;;;;;8.57;4.70;;;3.60;52.90;;;;;;5073944;28;20548;-46
2022/04/01 03:22:23;;;;;;;6.28;4.60;;;3.50;52.80;;;;;;5074012;28;20313;-46
2022/04/01 03:24:49;;;;;;;8.55;4.60;;;3.50;52.90;;;;;;5073916;28;20229;-46
2022/04/01 03:27:16;;;;;;;6.95;4.47;;;3.30;52.80;;;;;;5074069;28;20198;-47
2022/04/01 03:29:42;;;;;;;7.00;4.72;;;3.50;53.00;;;;;;5073416;28;20225;-45
2022/04/01 03:32:10;;;;;;;10.18;5.43;;;3.40;53.10;;;;;;5074043;28;20246;-45
2022/04/01 03:34:38;;;;;;;7.40;4.70;;;3.40;53.10;;;;;;5073768;28;20194;-45
2022/04/01 03:37:06;;;;;;;6.00;4.15;;;3.50;53.20;;;;;;5073706;28;20384;-47
2022/04/01 03:39:36;;;;;;;7.70;4.15;;;3.40;53.10;;;;;;5073547;28;20207;-45
2022/04/01 03:42:06;;;;;;;11.90;5.60;;;3.40;53.10;;;;;;5073917;28;20223;-45
2022/04/01 03:44:36;;;;;;;8.00;4.78;;;3.40;53.20;;;;;;5074927;28;20245;-46
2022/04/01 03:47:40;;;;;;;7.22;4.50;;;3.30;53.30;;;;;;5076219;28;20663;-46
2022/04/01 03:50:10;;;;;;;5.38;4.13;;;3.30;53.40;;;;;;5092770;28;20533;-45
2022/04/01 03:52:39;;;;;;;7.70;4.60;;;3.20;53.40;;;;;;5074396;28;20225;-45
2022/04/01 03:55:09;;;;;;;6.15;4.32;;;3.20;53.60;;;;;;5073761;28;20210;-46
2022/04/01 03:58:13;;;;;;;5.50;4.25;;;3.20;53.60;;;;;;5009355;28;20204;-47
2022/04/01 04:01:00;;;;;;;6.18;4.15;;;3.10;53.60;;;;;;5086851;28;20222;-46
2022/04/01 04:03:27;;;;;;;6.43;4.10;;;3.10;53.60;;;;;;5073470;28;20198;-44
2022/04/01 04:05:55;;;;;;;7.28;4.45;;;3.10;53.60;;;;;;5073492;28;20197;-45
2022/04/01 04:08:23;;;;;;;5.82;4.43;;;3.10;53.60;;;;;;5073447;28;20209;-45
2022/04/01 04:10:52;;;;;;;5.85;4.10;;;3.00;53.70;;;;;;5092014;28;20187;-45
2022/04/01 04:13:25;;;;;;;6.00;3.85;;;3.10;53.70;;;;;;5074511;28;20529;-46
2022/04/01 04:16:04;;;;;;;5.13;4.25;;;3.00;53.70;;;;;;5073433;28;20206;-46
2022/04/01 04:18:40;;;;;;;7.93;4.13;;;3.00;53.90;;;;;;5073012;28;20206;-45
2022/04/01 04:21:11;;;;;;;6.70;4.47;;;3.10;54.50;;;;;;5073112;28;20343;-47
2022/04/01 04:23:46;;;;;;;6.60;4.45;;;3.00;53.90;;;;;;5073268;28;20295;-46
2022/04/01 04:26:16;;;;;;;5.95;4.30;;;3.00;54.10;;;;;;5073001;28;20201;-46
2022/04/01 04:28:50;;;;;;;11.98;4.95;;;3.00;54.30;;;;;;5072547;28;20197;-45
2022/04/01 04:31:49;;;;;;;5.72;3.90;;;3.00;54.40;;;;;;5074359;28;20251;-45
2022/04/01 04:34:19;;;;;;;7.32;4.55;;;2.90;54.40;;;;;;5072848;28;20199;-46
2022/04/01 04:36:51;;;;;;;6.60;4.25;;;3.00;54.50;;;;;;5091285;28;20270;-45
2022/04/01 04:39:30;;;;;;;11.50;4.82;;;3.00;54.50;;;;;;5072930;28;20203;-45
2022/04/01 04:41:57;;;;;;;6.90;3.97;;;3.00;54.60;;;;;;5072856;28;20577;-46
2022/04/01 04:44:25;;;;;;;6.70;4.50;;;3.00;54.70;;;;;;5072551;28;20756;-45
2022/04/01 04:46:53;;;;;;;7.97;4.18;;;3.00;54.90;;;;;;5072905;28;20693;-46
2022/04/01 04:49:23;;;;;;;9.45;4.10;;;2.90;54.90;;;;;;5072303;28;20293;-44
2022/04/01 04:51:52;;;;;;;5.20;3.55;;;2.90;55.10;;;;;;5072780;28;20625;-47
2022/04/01 04:54:26;;;;;;;5.93;4.50;;;2.90;55.10;;;;;;5072772;28;20201;-46
2022/04/01 04:57:15;;;;;;;5.20;4.10;;;3.00;55.20;;;;;;5076929;28;20247;-45
2022/04/01 04:59:43;;;;;;;8.23;4.50;;;2.90;55.30;;;;;;5073425;28;20256;-44
2022/04/01 05:02:18;;;;;;;4.85;4.05;;;2.90;55.40;;;;;;5072546;28;20225;-47
2022/04/01 05:04:59;;;;;;;5.82;4.25;;;2.90;55.70;;;;;;5072674;28;20226;-46
2022/04/01 05:07:43;;;;;;;6.53;3.90;;;2.90;55.70;;;;;;5072810;28;20198;-45
2022/04/01 05:10:59;;;;;;;6.25;3.80;;;2.80;55.70;;;;;;5071211;28;20213;-46
2022/04/01 05:13:35;;;;;;;5.03;3.70;;;2.90;55.90;;;;;;5072270;28;20220;-47
2022/04/01 05:16:17;;;;;;;4.85;3.85;;;2.90;55.90;;;;;;5072620;28;20206;-46
2022/04/01 05:18:51;;;;;;;6.65;3.63;;;2.90;55.80;;;;;;5071961;28;20560;-46
2022/04/01 05:21:23;;;;;;;6.18;4.55;;;2.90;55.70;;;;;;5086645;22;20245;-52
2022/04/01 05:23:55;;;;;;;4.15;3.70;;;2.80;56.10;;;;;;5071985;28;20609;-52
2022/04/01 05:26:38;;;;;;;11.00;4.38;;;2.90;56.40;;;;;;5091337;28;20194;-51
2022/04/01 05:29:26;;;;;;;7.03;3.80;;;2.80;56.40;;;;;;5090650;28;20252;-52
2022/04/01 05:32:01;;;;;;;4.85;4.00;;;3.00;56.70;;;;;;5073267;28;20686;-52
2022/04/01 05:34:35;;;;;;;6.32;4.40;;;3.00;57.10;;;;;;5091565;28;20214;-52
2022/04/01 05:37:03;;;;;;;5.28;3.70;;;3.00;56.80;;;;;;5072879;28;20220;-51
2022/04/01 05:39:33;;;;;;;5.53;4.00;;;2.90;57.00;;;;;;5072154;28;20209;-51
2022/04/01 05:42:06;;;;;;;5.40;3.72;;;2.90;57.10;;;;;;5073510;28;20214;-51
2022/04/01 05:44:38;;;;;;;6.57;4.25;;;2.90;57.50;;;;;;5076480;28;20615;-51
2022/04/01 05:47:08;;;;;;;7.90;4.20;;;2.90;57.50;;;;;;5076431;28;20206;-51
2022/04/01 05:49:40;;;;;;;8.52;3.60;;;2.90;57.60;;;;;;5075778;28;20206;-51
2022/04/01 05:52:08;;;;;;;6.50;3.85;;;2.90;57.70;;;;;;5076395;28;20356;-52
2022/04/01 05:54:37;;;;;;;6.45;4.50;;;3.00;57.70;;;;;;5076120;28;20195;-52
2022/04/01 05:57:08;;;;;;;5.63;3.28;;;3.00;57.90;;;;;;5075641;28;20202;-52
2022/04/01 05:59:34;;;;;;;8.15;4.05;;;3.00;58.00;;;;;;5094517;28;20190;-52
2022/04/01 06:02:19;;;;;;;6.03;3.63;;;3.00;58.00;;;;;;5076475;28;20219;-51
2022/04/01 06:05:06;;;;;;;11.18;3.90;;;3.10;58.00;;;;;;5076267;28;20242;-50
2022/04/01 06:07:39;;;;;;;11.15;4.70;;;3.10;57.90;;;;;;5076177;28;20611;-52
2022/04/01 06:10:09;;;;;;;9.55;4.40;;;3.10;58.00;;;;;;5093755;28;20217;-51
2022/04/01 06:13:05;;;;;;;6.63;4.75;;;3.00;58.00;;;;;;5094419;28;20233;-51
2022/04/01 06:16:03;;;;;;;4.82;3.60;;;3.10;58.00;;;;;;5074583;28;20210;-52
2022/04/01 06:19:16;;;;;;;6.53;3.55;;;3.10;58.10;;;;;;4991811;28;20201;-52
2022/04/01 06:21:47;;;;;;;7.28;3.90;;;3.10;58.00;;;;;;5062425;28;20230;-52
2022/04/01 06:24:24;;;;;;;6.47;3.85;;;3.10;57.80;;;;;;5055982;28;20207;-52
2022/04/01 06:26:57;;;;;;;7.45;3.85;;;3.20;57.90;;;;;;5056014;28;20213;-52
2022/04/01 06:29:36;;;;;;;8.93;4.57;;;3.20;57.90;;;;;;5055139;28;20207;-52
2022/04/01 06:32:06;;;;;;;5.85;4.00;;;3.30;57.80;;;;;;5055806;28;20235;-52
2022/04/01 06:34:42;;;;;;;7.57;3.40;;;3.30;57.80;;;;;;5073593;28;20227;-51
2022/04/01 06:37:29;;;;;;;8.20;4.85;;;3.40;57.60;;;;;;5055442;28;20196;-51
2022/04/01 06:40:05;;;;;;;9.85;3.38;;;3.40;57.60;;;;;;5055265;28;20200;-52
2022/04/01 06:42:41;;;;;;;5.65;4.00;;;3.50;57.50;;;;;;5055537;28;20230;-52
2022/04/01 06:45:36;;;;;;;8.02;4.18;;;3.40;57.50;;;;;;5055308;28;20274;-52
2022/04/01 06:48:22;;;;;;;3.53;3.03;;;3.60;57.40;;;;;;5073408;28;20218;-51
2022/04/01 06:51:15;;;;;;;4.07;2.97;;;3.70;57.20;;;;;;5073360;28;20208;-52
2022/04/01 06:54:00;;;;;;;8.20;3.35;;;3.70;56.90;;;;;;5084656;28;20263;-52
2022/04/01 06:56:47;;;;;;;4.15;2.78;;;3.70;56.80;;;;;;5093377;28;20198;-50
2022/04/01 06:59:14;;;;;;;6.75;4.22;;;3.70;56.70;;;;;;5074838;28;20202;-51
2022/04/01 07:01:42;;;;;;;4.03;3.45;;;3.80;56.90;;;;;;5093603;28;20219;-51
2022/04/01 07:04:09;;;;;;;4.70;3.53;;;3.90;56.70;;;;;;5093349;28;20659;-51
2022/04/01 07:06:35;;;;;;;6.13;3.40;;;3.90;56.30;;;;;;5093467;28;20194;-51
2022/04/01 07:09:02;;;;;;;5.72;3.05;;;3.90;56.20;;;;;;5092939;28;20198;-51
2022/04/01 07:14:43;;;;;;;8.38;3.38;;;3.80;55.90;;;;;;5093608;28;20261;-51
2022/04/01 07:17:11;;;;;;;6.97;3.63;;;4.00;56.00;;;;;;5093003;28;20202;-51
2022/04/01 07:19:37;;;;;;;7.68;4.00;;;4.00;55.90;;;;;;5093069;28;20202;-51
2022/04/01 07:22:06;;;;;;;5.00;3.25;;;4.10;55.80;;;;;;5093235;28;20574;-51
2022/04/01 07:24:32;;;;;;;5.28;3.53;;;4.10;55.50;;;;;;5093096;28;20191;-51
2022/04/01 07:27:00;;;;;;;7.95;3.75;;;4.30;55.40;;;;;;5093182;28;20667;-51
2022/04/01 07:29:27;;;;;;;5.53;3.42;;;4.30;55.20;;;;;;5092451;28;20195;-51
2022/04/01 07:34:43;;;;;;;10.32;3.85;;;4.30;54.80;;;;;;5092978;28;20190;-50
2022/04/01 07:37:10;;;;;;;6.97;3.50;;;4.30;54.80;;;;;;5093088;28;20384;-50
2022/04/01 07:39:38;;;;;;;5.10;3.28;;;4.30;54.40;;;;;;5092678;28;20260;-53
2022/04/01 07:42:05;;;;;;;7.35;3.83;;;4.40;54.40;;;;;;5092426;28;20214;-50
2022/04/01 07:44:32;;;;;;;4.85;2.90;;;4.50;54.40;;;;;;5092500;28;20216;-53
2022/04/01 07:47:01;;;;;;;6.05;3.63;;;4.60;54.00;;;;;;5074018;28;20650;-50
2022/04/01 07:49:28;;;;;;;6.18;2.95;;;4.60;53.50;;;;;;5092247;28;20207;-51
2022/04/01 07:51:55;;;;;;;5.32;2.75;;;4.70;53.50;;;;;;5092421;28;20293;-52
2022/04/01 07:54:22;;;;;;;8.48;4.53;;;4.70;53.30;;;;;;5092098;28;20594;-51
2022/04/01 07:56:49;;;;;;;7.05;3.72;;;4.80;53.20;;;;;;5073816;28;20198;-52
2022/04/01 07:59:16;;;;;;;9.43;3.35;;;4.80;52.80;;;;;;5091886;28;20191;-52
2022/04/01 08:01:43;;;;;;;6.70;3.55;;;4.80;52.60;;;;;;5092161;28;20211;-52
2022/04/01 08:04:09;;;;;;;6.43;3.65;;;4.90;52.20;;;;;;5091924;28;20206;-52
2022/04/01 08:06:37;;;;;;;4.43;3.00;;;4.90;51.70;;;;;;5092074;28;20226;-53
2022/04/01 08:09:05;;;;;;;5.90;3.53;;;5.00;51.70;;;;;;5091604;28;20278;-53
2022/04/01 08:11:31;;;;;;;4.45;3.00;;;5.10;51.70;;;;;;5092293;28;20222;-52
2022/04/01 08:13:58;;;;;;;6.03;3.15;;;5.20;51.60;;;;;;5091792;28;20211;-52
2022/04/01 08:16:24;;;;;;;8.15;3.85;;;5.30;51.10;;;;;;5092055;28;20201;-52
2022/04/01 08:18:51;;;;;;;7.57;3.53;;;5.40;50.70;;;;;;5091750;28;20199;-52
2022/04/01 08:21:18;;;;;;;4.38;3.40;;;5.40;50.20;;;;;;5092070;28;20223;-52
2022/04/01 08:23:45;;;;;;;4.88;2.70;;;5.40;49.50;;;;;;5092143;28;20475;-52
2022/04/01 08:26:13;;;;;;;3.80;2.67;;;5.50;49.70;;;;;;5092625;28;20701;-51
2022/04/01 08:28:40;;;;;;;6.22;3.35;;;5.50;49.20;;;;;;5091435;28;20225;-51
2022/04/01 08:31:08;;;;;;;7.57;3.45;;;5.60;49.00;;;;;;5092011;28;20194;-51
2022/04/01 08:33:35;;;;;;;5.72;2.60;;;5.70;48.90;;;;;;5091797;28;20551;-52
2022/04/01 08:36:02;;;;;;;4.15;2.60;;;5.80;48.60;;;;;;5091471;28;20190;-51
2022/04/01 08:38:29;;;;;;;8.50;3.05;;;5.90;48.70;;;;;;5091594;28;20194;-51
2022/04/01 08:40:56;;;;;;;10.32;3.40;;;5.90;47.80;;;;;;5091240;28;20246;-51
2022/04/01 08:43:29;;;;;;;6.70;3.70;;;6.00;47.50;;;;;;5091260;28;20237;-52
2022/04/01 08:45:57;;;;;;;5.20;2.70;;;6.10;46.90;;;;;;5091393;28;21011;-51
2022/04/01 08:48:25;;;;;;;6.80;2.90;;;6.10;46.70;;;;;;5091037;28;20446;-51
2022/04/01 08:50:52;;;;;;;4.83;2.50;;;6.10;45.40;;;;;;5091345;28;20439;-51
2022/04/01 08:53:19;;;;;;;7.82;3.08;;;6.20;45.70;;;;;;5091196;28;20453;-51
2022/04/01 08:55:47;;;;;;;8.07;2.57;;;6.30;45.40;;;;;;5090912;28;20203;-51
2022/04/01 08:58:16;;;;;;;7.80;3.00;;;6.30;44.80;;;;;;5091458;28;20987;-50
2022/04/01 09:00:44;;;;;;;4.83;2.27;;;6.40;44.50;;;;;;5091303;28;20472;-51
2022/04/01 09:03:13;;;;;;;5.17;2.37;;;6.40;43.60;;;;;;5091102;28;20483;-51
2022/04/01 09:05:44;;;;;;;5.17;2.30;;;6.50;43.90;;;;;;5091397;28;20978;-51
2022/04/01 09:08:14;;;;;;;6.00;2.47;;;6.50;43.20;;;;;;5091238;28;20528;-51
2022/04/01 09:10:53;;;;;;;4.50;2.67;;;6.70;43.10;;;;;;5090815;28;20444;-50
2022/04/01 09:13:20;;;;;;;7.40;2.40;;;6.60;42.40;;;;;;5091131;28;20838;-53
2022/04/01 09:15:48;;;;;;;6.93;2.20;;;6.60;42.30;;;;;;5092066;28;20510;-50
2022/04/01 09:18:33;;;;;;;4.23;2.23;;;6.60;42.40;;;;;;5094933;28;20460;-50
2022/04/01 09:21:00;;;;;;;6.93;2.97;;;6.70;42.60;;;;;;5095583;28;20428;-51
2022/04/01 09:23:26;;;;;;;3.73;2.40;;;6.70;42.10;;;;;;5093372;28;20526;-51
2022/04/01 09:25:54;;;;;;;13.20;2.80;;;6.70;42.10;;;;;;5095011;28;20480;-51
2022/04/01 09:28:25;;;;;;;4.90;2.67;;;6.80;42.00;;;;;;5095254;28;20963;-50
2022/04/01 09:30:59;;;;;;;8.93;2.30;;;6.80;41.70;;;;;;5095349;28;20945;-51
2022/04/01 09:33:34;;;;;;;7.80;3.00;;;6.80;41.60;;;;;;5094942;28;20456;-51
2022/04/01 09:36:06;;;;;;;3.87;2.43;;;6.90;42.00;;;;;;5095223;28;20428;-52
2022/04/01 09:38:34;;;;;;;7.00;2.50;;;7.00;42.00;;;;;;5095027;28;20412;-51
2022/04/01 09:41:03;;;;;;;20.20;3.30;;;7.00;41.80;;;;;;5094802;28;20456;-52
2022/04/01 09:43:32;;;;;;;7.13;3.10;;;6.90;42.10;;;;;;5093289;28;21031;-51
2022/04/01 09:46:05;;;;;;;4.30;2.53;;;6.80;42.20;;;;;;5094336;28;20456;-52
2022/04/01 09:48:40;;;;;;;4.60;2.83;;;6.70;42.70;;;;;;5094369;28;20448;-52
2022/04/01 09:51:10;;;;;;;8.27;3.10;;;6.80;43.00;;;;;;5094858;28;20418;-52
2022/04/01 09:53:37;;;;;;;6.93;3.93;;;7.00;43.30;;;;;;5094342;28;20440;-52
2022/04/01 09:56:03;;;;;;;5.27;2.97;;;7.10;43.40;;;;;;5094496;28;20777;-51
2022/04/01 09:58:30;;;;;;;6.93;2.80;;;7.00;42.90;;;;;;5094004;28;20456;-52
2022/04/01 10:00:57;;;;;;;6.13;3.07;;;7.10;43.20;;;;;;5094534;28;20544;-52
2022/04/01 10:03:25;;;;;;;8.80;3.20;;;6.90;43.00;;;;;;5075916;28;20542;-51
2022/04/01 10:05:52;;;;;;;6.27;2.97;;;6.90;43.20;;;;;;5076301;28;21050;-51
2022/04/01 10:08:20;;;;;;;6.10;2.83;;;6.90;43.20;;;;;;5075556;28;20441;-52
2022/04/01 10:10:48;;;;;;;5.07;3.07;;;6.90;43.10;;;;;;5094055;28;20935;-51
2022/04/01 10:13:20;;;;;;;7.00;3.70;;;7.00;43.50;;;;;;5094371;28;20457;-52
2022/04/01 10:15:47;;;;;;;3.87;2.93;;;6.90;42.90;;;;;;5094122;28;20524;-51
2022/04/01 10:18:14;;;;;;;8.60;3.70;;;7.10;42.70;;;;;;5094469;28;20445;-52
2022/04/01 10:20:42;;;;;;;5.27;3.17;;;7.20;42.40;;;;;;5094471;28;20453;-51
2022/04/01 10:23:11;;;;;;;4.87;2.83;;;7.20;42.20;;;;;;5094181;28;20469;-52
2022/04/01 10:25:45;;;;;;;6.90;2.80;;;7.20;42.30;;;;;;5093523;28;20485;-52
2022/04/01 10:28:12;;;;;;;4.23;3.00;;;7.30;42.20;;;;;;5093197;28;20522;-51
2022/04/01 10:30:40;;;;;;;4.10;2.80;;;7.20;41.60;;;;;;5093522;28;20405;-52
2022/04/01 10:33:09;;;;;;;5.47;2.77;;;7.40;41.60;;;;;;5076226;28;20851;-50
2022/04/01 10:35:38;;;;;;;8.60;3.00;;;7.20;41.40;;;;;;5073174;28;20410;-51
2022/04/01 10:38:21;;;;;;;7.53;3.13;;;7.30;41.40;;;;;;5073284;28;20439;-51
2022/04/01 10:40:50;;;;;;;4.63;2.83;;;8.30;41.90;;;;;;5058747;28;20466;-53
2022/04/01 10:43:20;;;;;;;6.80;2.90;;;7.30;40.20;;;;;;5074908;28;20515;-51
2022/04/01 10:46:03;;;;;;;8.70;3.00;;;7.30;39.80;;;;;;5093172;28;20726;-52
2022/04/01 10:54:25;;;;;;;9.67;2.77;;;7.50;39.70;;;;;;5085118;28;20525;-52
2022/04/01 10:57:01;;;;;;;3.90;3.13;;;7.50;39.70;;;;;;5093309;28;20664;-51
2022/04/01 10:59:29;;;;;;;7.13;2.53;;;7.70;39.70;;;;;;5093296;28;20491;-51
2022/04/01 11:02:07;;;;;;;5.67;3.10;;;7.70;39.20;;;;;;5093596;28;20806;-53
2022/04/01 11:04:36;;;;;;;5.37;2.80;;;7.60;38.60;;;;;;5093182;28;20765;-52
2022/04/01 11:07:04;;;;;;;6.90;3.60;;;7.60;38.50;;;;;;5093197;28;20445;-60
2022/04/01 11:09:45;;;;;;;4.80;2.30;;;7.50;38.50;;;;;;5092659;28;20490;-51
2022/04/01 11:12:32;;;;;;;4.23;3.23;;;7.40;38.50;;;;;;5092924;28;20803;-51
2022/04/01 11:15:20;;;;;;;9.00;4.20;;;7.50;38.20;;;;;;5093615;28;20503;-48
2022/04/01 11:18:10;;;;;;;3.63;2.53;;;7.50;38.40;;;;;;5093176;28;20472;-53
2022/04/01 11:20:39;;;;;;;4.67;2.30;;;7.50;38.20;;;;;;5072540;28;20902;-51
2022/04/01 11:23:12;;;;;;;13.17;3.03;;;7.50;38.30;;;;;;5105202;22;20592;-49
2022/04/01 11:25:54;;;;;;;5.77;2.90;;;7.50;38.50;;;;;;5091459;28;20434;-49
2022/04/01 11:28:23;;;;;;;3.50;2.83;;;7.50;38.50;;;;;;5091586;28;20531;-49
2022/04/01 11:31:09;;;;;;;3.90;2.20;;;7.60;38.60;;;;;;5091447;28;20463;-49
2022/04/01 11:33:36;;;;;;;4.87;2.53;;;7.60;37.80;;;;;;5071501;28;20976;-47
2022/04/01 11:36:04;;;;;;;4.87;2.60;;;7.60;37.90;;;;;;5071352;28;20477;-48
2022/04/01 11:38:31;;;;;;;6.07;3.00;;;7.50;37.60;;;;;;5070914;28;20531;-47
2022/04/01 11:41:03;;;;;;;6.63;2.70;;;7.70;37.90;;;;;;5070362;28;20434;-48
2022/04/01 11:43:31;;;;;;;5.33;2.50;;;7.70;37.50;;;;;;5071937;28;20783;-50
2022/04/01 11:45:59;;;;;;;3.77;2.90;;;7.10;36.60;;;;;;5071538;28;20494;-49
2022/04/01 11:48:30;;;;;;;3.57;2.30;;;7.60;37.10;;;;;;5071140;28;20440;-48
2022/04/01 11:50:59;;;;;;;8.97;3.30;;;7.70;37.40;;;;;;5072067;28;20443;-49
2022/04/01 11:53:27;;;;;;;6.07;2.97;;;7.70;37.20;;;;;;5078258;28;20813;-48
2022/04/01 11:55:55;;;;;;;13.87;3.27;;;7.80;37.20;;;;;;5073054;28;20446;-49
2022/04/01 11:58:24;;;;;;;13.60;3.33;;;7.90;37.00;;;;;;5091493;28;20485;-48
2022/04/01 12:00:50;;;;;;;6.63;2.47;;;7.90;36.80;;;;;;5091219;28;20769;-48
2022/04/01 12:03:19;;;;;;;5.20;2.93;;;8.00;36.90;;;;;;5072911;28;20469;-48
2022/04/01 12:05:46;;;;;;;9.40;2.73;;;8.10;36.70;;;;;;5091153;28;20586;-49
2022/04/01 12:10:59;;;;;;;4.20;3.10;;;8.20;36.40;;;;;;5090732;28;20532;-48
2022/04/01 12:13:29;;;;;;;5.13;3.13;;;8.20;35.80;;;;;;5090283;28;20835;-49
2022/04/01 12:15:58;;;;;;;6.53;3.20;;;8.20;35.90;;;;;;5090731;28;20500;-49
2022/04/01 12:18:28;;;;;;;6.97;2.40;;;8.30;36.40;;;;;;5090668;28;20410;-48
2022/04/01 12:20:57;;;;;;;7.00;2.67;;;8.30;36.10;;;;;;5090711;28;20442;-50
2022/04/01 12:23:26;;;;;;;4.90;1.97;;;8.30;35.70;;;;;;5090522;28;20474;-49
2022/04/01 12:25:54;;;;;;;6.37;2.93;;;8.30;35.80;;;;;;5090791;28;20862;-49
2022/04/01 12:28:26;;;;;;;4.47;2.60;;;8.30;35.70;;;;;;5090973;28;20439;-49
2022/04/01 12:30:56;;;;;;;3.53;2.50;;;8.40;35.80;;;;;;5090696;28;20523;-48
2022/04/01 12:33:25;;;;;;;6.20;2.90;;;8.50;35.90;;;;;;5090303;28;20497;-49
2022/04/01 12:35:57;;;;;;;4.77;2.60;;;8.50;35.50;;;;;;5090479;28;20542;-49
2022/04/01 12:38:25;;;;;;;6.63;2.60;;;8.50;35.70;;;;;;5090573;28;20442;-49
2022/04/01 12:40:54;;;;;;;6.40;3.20;;;8.40;35.40;;;;;;5090344;28;20900;-48
2022/04/01 12:43:39;;;;;;;5.87;3.00;;;8.40;35.30;;;;;;5089271;28;20467;-49
2022/04/01 12:46:09;;;;;;;4.33;2.73;;;8.40;35.60;;;;;;5090263;28;20438;-50
2022/04/01 12:48:47;;;;;;;7.13;2.80;;;8.40;35.50;;;;;;5090380;28;20889;-48
2022/04/01 12:51:18;;;;;;;3.83;2.93;;;8.40;35.30;;;;;;5090128;28;20497;-48
2022/04/01 12:54:00;;;;;;;15.20;3.40;;;8.40;35.70;;;;;;5090041;28;20608;-48
2022/04/01 12:56:30;;;;;;;3.60;2.07;;;8.40;35.90;;;;;;5090533;28;20816;-48
2022/04/01 12:58:59;;;;;;;7.47;2.60;;;8.50;35.70;;;;;;5090355;28;20406;-48
2022/04/01 13:01:28;;;;;;;5.77;2.70;;;8.50;35.60;;;;;;5090186;28;20436;-50
2022/04/01 13:03:57;;;;;;;8.33;2.40;;;8.60;35.60;;;;;;5090488;28;20982;-48
2022/04/01 13:06:25;;;;;;;7.93;2.80;;;8.60;35.20;;;;;;5090060;28;20467;-48
2022/04/01 13:09:01;;;;;;;6.40;3.20;;;8.60;35.10;;;;;;5089961;28;20440;-50
2022/04/01 13:11:43;;;;;;;7.23;3.33;;;8.60;35.40;;;;;;5090075;28;20479;-48
2022/04/01 13:14:21;;;;;;;4.83;2.60;;;8.60;35.40;;;;;;5090061;28;20435;-49
2022/04/01 13:16:50;;;;;;;6.27;3.03;;;8.60;35.20;;;;;;5090400;28;20440;-49
2022/04/01 13:19:23;;;;;;;5.13;2.57;;;8.60;34.50;;;;;;5089701;28;20942;-49
2022/04/01 13:21:50;;;;;;;3.90;2.70;;;8.50;34.20;;;;;;5089272;28;20466;-49
2022/04/01 13:24:20;;;;;;;3.97;2.60;;;8.60;34.70;;;;;;5090064;28;20435;-49
2022/04/01 13:26:47;;;;;;;6.70;2.60;;;8.70;34.90;;;;;;5071840;28;20475;-49
2022/04/01 13:29:13;;;;;;;5.90;3.63;;;8.70;35.40;;;;;;5089382;28;20435;-48
2022/04/01 13:31:41;;;;;;;4.40;2.60;;;8.70;35.50;;;;;;5089827;28;20838;-49
2022/04/01 13:34:09;;;;;;;6.83;2.63;;;8.70;35.60;;;;;;5089816;28;20840;-48
2022/04/01 13:36:35;;;;;;;3.10;2.37;;;8.80;35.30;;;;;;5089853;28;20440;-49